createdAt,value
2022-11-17T00:00:05.221Z,4.28
2022-11-17T00:02:33.363Z,4.10
2022-11-17T00:05:01.384Z,4.65
2022-11-17T00:07:32.183Z,4.20
2022-11-17T00:10:00.273Z,4.55
2022-11-17T00:12:45.712Z,4.50
2022-11-17T00:15:15.102Z,4.63
2022-11-17T00:17:43.076Z,4.47
2022-11-17T00:20:29.671Z,4.35
2022-11-17T00:22:57.607Z,4.47
2022-11-17T00:25:27.801Z,4.60
2022-11-17T00:27:55.781Z,4.20
2022-11-17T00:30:43.967Z,4.50
2022-11-17T00:33:29.356Z,4.30
2022-11-17T00:35:57.266Z,4.78
2022-11-17T00:38:25.189Z,4.40
2022-11-17T00:40:53.129Z,4.72
2022-11-17T00:43:21.069Z,4.20
2022-11-17T00:45:50.355Z,4.65
2022-11-17T00:48:21.012Z,4.60
2022-11-17T00:50:49.008Z,4.40
2022-11-17T00:53:17.180Z,4.65
2022-11-17T00:55:45.236Z,3.50
2022-11-17T00:58:13.307Z,4.60
2022-11-17T01:00:41.386Z,4.50
2022-11-17T01:03:10.610Z,7.30
2022-11-17T01:05:38.522Z,6.47
2022-11-17T01:08:06.723Z,5.55
2022-11-17T01:10:36.114Z,5.15
2022-11-17T01:13:04.057Z,5.63
2022-11-17T01:15:31.978Z,4.90
2022-11-17T01:17:59.834Z,5.00
2022-11-17T01:20:29.273Z,4.90
2022-11-17T01:22:57.173Z,4.55
2022-11-17T01:25:25.142Z,4.80
2022-11-17T01:27:53.070Z,4.70
2022-11-17T01:30:21.052Z,4.10
2022-11-17T01:32:49.001Z,4.63
2022-11-17T01:35:17.051Z,4.72
2022-11-17T01:37:46.350Z,4.20
2022-11-17T01:40:14.508Z,4.88
2022-11-17T01:42:42.422Z,4.10
2022-11-17T01:45:21.946Z,3.90
2022-11-17T01:47:53.862Z,4.05
2022-11-17T01:50:28.885Z,4.40
2022-11-17T01:53:02.228Z,4.15
2022-11-17T01:55:37.013Z,4.07
2022-11-17T01:58:10.025Z,3.80
2022-11-17T02:00:38.170Z,4.15
2022-11-17T02:03:07.284Z,3.63
2022-11-17T02:05:42.673Z,3.75
2022-11-17T02:08:13.093Z,3.65
2022-11-17T02:10:41.445Z,4.13
2022-11-17T02:13:10.505Z,4.13
2022-11-17T02:15:38.394Z,3.58
2022-11-17T02:18:06.866Z,3.40
2022-11-17T02:21:10.618Z,4.10
2022-11-17T02:24:06.652Z,3.60
2022-11-17T02:27:08.925Z,3.72
2022-11-17T02:29:46.864Z,3.53
2022-11-17T02:32:18.247Z,4.00
2022-11-17T02:34:50.155Z,3.23
2022-11-17T02:37:25.618Z,3.08
2022-11-17T02:40:00.580Z,3.30
2022-11-17T02:42:53.773Z,3.78
2022-11-17T02:45:30.219Z,3.35
2022-11-17T02:48:01.371Z,3.05
2022-11-17T02:50:30.768Z,3.10
2022-11-17T02:52:58.886Z,2.92
2022-11-17T02:55:27.771Z,3.10
2022-11-17T02:57:55.707Z,3.33
2022-11-17T03:00:25.267Z,2.80
2022-11-17T03:03:22.783Z,3.20
2022-11-17T03:05:59.575Z,3.13
2022-11-17T03:08:39.475Z,2.80
2022-11-17T03:11:09.387Z,3.17
2022-11-17T03:13:47.216Z,2.78
2022-11-17T03:16:26.764Z,3.30
2022-11-17T03:19:07.054Z,3.13
2022-11-17T03:21:39.802Z,2.90
2022-11-17T03:24:13.097Z,2.92
2022-11-17T03:26:47.462Z,2.90
2022-11-17T03:29:18.733Z,2.83
2022-11-17T03:31:50.252Z,3.03
2022-11-17T03:34:21.662Z,3.35
2022-11-17T03:36:53.296Z,2.40
2022-11-17T03:39:30.635Z,3.00
2022-11-17T03:42:02.615Z,3.00
2022-11-17T03:44:34.945Z,2.92
2022-11-17T03:47:06.677Z,2.88
2022-11-17T03:49:41.834Z,3.00
2022-11-17T03:52:09.873Z,2.50
2022-11-17T03:54:38.121Z,2.70
2022-11-17T03:57:12.873Z,2.50
2022-11-17T03:59:47.799Z,2.80
2022-11-17T04:02:19.330Z,2.58
2022-11-17T04:05:05.123Z,2.80
2022-11-17T04:07:33.490Z,3.10
2022-11-17T04:10:01.990Z,2.60
2022-11-17T04:12:47.414Z,2.47
2022-11-17T04:15:47.068Z,2.38
2022-11-17T04:18:16.932Z,2.70
2022-11-17T04:20:45.033Z,2.35
2022-11-17T04:23:15.103Z,2.65
2022-11-17T04:26:02.665Z,2.38
2022-11-17T04:28:38.426Z,2.63
2022-11-17T04:31:14.172Z,2.50
2022-11-17T04:33:44.836Z,2.45
2022-11-17T04:36:15.163Z,2.60
2022-11-17T04:38:44.167Z,2.45
2022-11-17T04:41:31.389Z,2.35
2022-11-17T04:43:59.916Z,2.67
2022-11-17T04:46:28.707Z,2.40
2022-11-17T04:48:59.254Z,2.10
2022-11-17T04:51:28.053Z,2.40
2022-11-17T04:53:56.585Z,2.55
2022-11-17T04:56:26.444Z,2.28
2022-11-17T04:58:54.639Z,2.45
2022-11-17T05:01:23.772Z,2.17
2022-11-17T05:03:53.530Z,2.22
2022-11-17T05:06:24.973Z,2.30
2022-11-17T05:08:55.636Z,2.15
2022-11-17T05:11:42.053Z,2.28
2022-11-17T05:14:10.434Z,2.20
2022-11-17T05:16:55.903Z,2.45
2022-11-17T05:19:26.196Z,2.10
2022-11-17T05:21:55.913Z,2.05
2022-11-17T05:24:23.103Z,2.05
2022-11-17T05:26:51.516Z,2.60
2022-11-17T05:29:21.607Z,2.42
2022-11-17T05:31:50.237Z,3.15
2022-11-17T05:34:20.224Z,3.35
2022-11-17T05:36:48.162Z,3.40
2022-11-17T05:39:17.464Z,3.78
2022-11-17T05:41:45.368Z,3.33
2022-11-17T05:44:13.342Z,3.13
2022-11-17T05:46:41.651Z,3.20
2022-11-17T05:49:09.639Z,3.42
2022-11-17T05:51:38.379Z,3.08
2022-11-17T05:54:06.624Z,3.42
2022-11-17T05:56:40.141Z,3.13
2022-11-17T05:59:24.826Z,3.33
2022-11-17T06:02:01.546Z,3.25
2022-11-17T06:04:30.075Z,3.13
2022-11-17T06:06:59.606Z,3.20
2022-11-17T06:09:33.604Z,2.80
2022-11-17T06:12:06.266Z,2.67
2022-11-17T06:14:34.838Z,2.55
2022-11-17T06:17:05.795Z,3.20
2022-11-17T06:19:39.211Z,2.97
2022-11-17T06:22:12.685Z,2.97
2022-11-17T06:24:43.193Z,2.97
2022-11-17T06:27:15.081Z,5.00
2022-11-17T06:29:45.056Z,3.10
2022-11-17T06:32:14.898Z,3.28
2022-11-17T06:34:43.652Z,3.17
2022-11-17T06:37:12.355Z,3.50
2022-11-17T06:39:40.287Z,3.05
2022-11-17T06:42:08.485Z,3.08
2022-11-17T06:44:37.723Z,3.25
2022-11-17T06:47:05.791Z,3.08
2022-11-17T06:49:33.801Z,3.35
2022-11-17T06:52:01.800Z,3.08
2022-11-17T06:54:29.693Z,2.78
2022-11-17T06:57:00.492Z,3.33
2022-11-17T06:59:28.507Z,3.35
2022-11-17T07:02:00.645Z,3.35
2022-11-17T07:04:28.645Z,2.92
2022-11-17T07:06:56.609Z,3.55
2022-11-17T07:09:25.444Z,3.25
2022-11-17T07:11:53.663Z,3.10
2022-11-17T07:14:23.939Z,2.50
2022-11-17T07:16:51.953Z,3.38
2022-11-17T07:19:21.524Z,2.80
2022-11-17T07:21:52.001Z,3.03
2022-11-17T07:24:19.997Z,3.00
2022-11-17T07:26:47.942Z,3.10
2022-11-17T07:29:16.243Z,3.03
2022-11-17T07:31:46.435Z,3.33
2022-11-17T07:34:14.445Z,2.90
2022-11-17T07:36:44.095Z,2.67
2022-11-17T07:39:14.953Z,2.95
2022-11-17T07:41:45.141Z,2.70
2022-11-17T07:44:13.093Z,2.72
2022-11-17T07:46:41.066Z,2.65
2022-11-17T07:49:08.982Z,2.90
2022-11-17T07:51:37.027Z,2.60
2022-11-17T07:54:06.671Z,2.95
2022-11-17T07:56:35.468Z,3.17
2022-11-17T07:59:03.505Z,2.90
2022-11-17T08:01:33.933Z,2.70
2022-11-17T08:04:02.131Z,2.50
2022-11-17T08:06:30.153Z,3.55
2022-11-17T08:08:58.131Z,3.10
2022-11-17T08:11:27.420Z,2.55
2022-11-17T08:13:55.389Z,2.70
2022-11-17T08:16:25.649Z,2.80
2022-11-17T08:18:56.957Z,3.22
2022-11-17T08:21:25.347Z,2.58
2022-11-17T08:23:55.199Z,2.75
2022-11-17T08:26:25.144Z,2.95
2022-11-17T08:28:58.426Z,2.53
2022-11-17T08:31:27.083Z,2.97
2022-11-17T08:33:55.681Z,3.15
2022-11-17T08:36:23.665Z,2.72
2022-11-17T08:38:51.672Z,2.97
2022-11-17T08:41:19.874Z,3.20
2022-11-17T08:43:47.860Z,2.55
2022-11-17T08:46:17.174Z,2.70
2022-11-17T08:48:48.963Z,2.53
2022-11-17T08:51:20.348Z,2.65
2022-11-17T08:53:48.402Z,2.70
2022-11-17T08:56:19.715Z,2.83
2022-11-17T08:58:47.695Z,2.60
2022-11-17T09:01:18.452Z,3.00
2022-11-17T09:03:47.880Z,2.78
2022-11-17T09:06:18.060Z,2.58
2022-11-17T09:08:56.252Z,2.70
2022-11-17T09:11:24.852Z,2.53
2022-11-17T09:13:52.717Z,2.70
2022-11-17T09:16:24.035Z,2.80
2022-11-17T09:18:56.960Z,2.88
2022-11-17T09:21:26.286Z,2.90
2022-11-17T09:23:54.822Z,2.55
2022-11-17T09:26:22.908Z,2.88
2022-11-17T09:28:53.618Z,3.33
2022-11-17T09:31:23.538Z,2.58
2022-11-17T09:33:51.686Z,2.63
2022-11-17T09:36:22.357Z,2.60
2022-11-17T09:38:51.052Z,2.97
2022-11-17T09:41:26.451Z,2.38
2022-11-17T09:44:16.548Z,2.50
2022-11-17T09:46:57.248Z,2.50
2022-11-17T09:49:36.667Z,2.47
2022-11-17T09:52:14.722Z,3.05
2022-11-17T09:54:48.367Z,2.50
2022-11-17T09:57:23.555Z,2.40
2022-11-17T10:00:02.302Z,2.42
2022-11-17T10:02:32.065Z,2.40
2022-11-17T10:05:00.667Z,2.20
2022-11-17T10:07:33.015Z,3.17
2022-11-17T10:10:04.541Z,2.63
2022-11-17T10:12:39.884Z,2.40
2022-11-17T10:15:23.802Z,2.08
2022-11-17T10:17:53.518Z,2.15
2022-11-17T10:20:21.953Z,2.50
2022-11-17T10:22:53.305Z,2.30
2022-11-17T10:25:24.013Z,2.40
2022-11-17T10:27:54.890Z,2.28
2022-11-17T10:30:25.116Z,2.30
2022-11-17T10:32:55.967Z,2.20
2022-11-17T10:35:26.002Z,3.08
2022-11-17T10:37:56.785Z,2.65
2022-11-17T10:40:26.548Z,2.78
2022-11-17T10:43:19.510Z,2.38
2022-11-17T10:45:49.116Z,2.30
2022-11-17T10:48:30.428Z,2.20
2022-11-17T10:51:00.261Z,2.17
2022-11-17T10:53:44.889Z,2.25
2022-11-17T10:56:17.282Z,2.00
2022-11-17T10:59:05.530Z,2.50
2022-11-17T11:01:36.432Z,2.00
2022-11-17T11:04:08.035Z,2.10
2022-11-17T11:06:36.396Z,2.30
2022-11-17T11:09:11.663Z,2.20
2022-11-17T11:11:44.345Z,2.17
2022-11-17T11:14:19.103Z,2.22
2022-11-17T11:16:49.008Z,2.17
2022-11-17T11:19:20.338Z,2.28
2022-11-17T11:22:03.876Z,2.63
2022-11-17T11:24:40.202Z,2.58
2022-11-17T11:27:27.312Z,1.88
2022-11-17T11:30:02.744Z,2.20
2022-11-17T11:32:41.150Z,2.28
2022-11-17T11:35:41.160Z,1.90
2022-11-17T11:38:23.388Z,2.13
2022-11-17T11:41:05.947Z,2.40
2022-11-17T11:43:45.794Z,2.20
2022-11-17T11:46:18.498Z,2.22
2022-11-17T11:48:51.198Z,2.00
2022-11-17T11:51:26.208Z,2.20
2022-11-17T11:53:59.881Z,2.42
2022-11-17T11:56:33.034Z,2.35
2022-11-17T11:59:07.937Z,2.05
2022-11-17T12:01:48.933Z,2.03
2022-11-17T12:04:27.727Z,2.03
2022-11-17T12:07:11.212Z,2.28
2022-11-17T12:09:49.086Z,1.75
2022-11-17T12:12:20.068Z,1.95
2022-11-17T12:15:11.462Z,2.00
2022-11-17T12:17:54.981Z,1.60
2022-11-17T12:20:50.156Z,1.80
2022-11-17T12:23:28.392Z,1.70
2022-11-17T12:25:58.439Z,1.83
2022-11-17T12:28:34.111Z,1.60
2022-11-17T12:31:09.455Z,1.70
2022-11-17T12:34:14.763Z,1.70
2022-11-17T12:36:42.928Z,2.15
2022-11-17T12:39:55.866Z,1.55
2022-11-17T12:45:11.247Z,1.90
2022-11-17T12:47:41.057Z,1.60
2022-11-17T12:50:45.940Z,1.75
2022-11-17T12:53:34.215Z,1.80
2022-11-17T12:56:27.033Z,1.83
2022-11-17T12:59:05.120Z,1.67
2022-11-17T13:01:43.252Z,1.80
2022-11-17T13:04:15.772Z,1.50
2022-11-17T13:06:59.257Z,1.50
2022-11-17T13:09:28.892Z,2.30
2022-11-17T13:12:02.261Z,4.20
2022-11-17T13:14:30.804Z,2.40
2022-11-17T13:17:00.239Z,1.42
2022-11-17T13:19:34.499Z,2.00
2022-11-17T13:22:05.765Z,2.17
2022-11-17T13:24:36.178Z,2.23
2022-11-17T13:27:08.504Z,2.22
2022-11-17T13:32:14.611Z,1.45
2022-11-17T13:35:03.175Z,1.90
2022-11-17T13:37:31.759Z,1.90
2022-11-17T13:40:02.407Z,2.70
2022-11-17T13:42:35.608Z,2.05
2022-11-17T13:45:06.529Z,2.05
2022-11-17T13:47:46.680Z,2.78
2022-11-17T13:50:37.661Z,2.97
2022-11-17T13:53:23.830Z,2.85
2022-11-17T13:55:53.373Z,1.95
2022-11-17T13:58:30.039Z,2.40
2022-11-17T14:01:00.084Z,2.40
2022-11-17T14:03:39.104Z,2.60
2022-11-17T14:06:09.691Z,2.88
2022-11-17T14:08:40.778Z,3.13
2022-11-17T14:11:21.487Z,2.92
2022-11-17T14:13:52.461Z,2.70
2022-11-17T14:16:27.979Z,3.20
2022-11-17T14:18:58.736Z,2.83
2022-11-17T14:21:26.933Z,2.38
2022-11-17T14:24:05.686Z,2.83
2022-11-17T14:26:34.134Z,3.05
2022-11-17T14:29:03.829Z,2.35
2022-11-17T14:31:33.381Z,2.70
2022-11-17T14:34:01.600Z,2.50
2022-11-17T14:36:29.596Z,2.65
2022-11-17T14:38:57.540Z,2.50
2022-11-17T14:41:25.482Z,2.60
2022-11-17T14:43:53.417Z,2.85
2022-11-17T14:46:25.427Z,2.58
2022-11-17T14:48:55.392Z,2.13
2022-11-17T14:51:25.903Z,2.10
2022-11-17T14:53:54.307Z,2.40
2022-11-17T14:56:24.016Z,2.17
2022-11-17T14:58:55.845Z,2.70
2022-11-17T15:01:29.072Z,2.28
2022-11-17T15:03:58.777Z,2.10
2022-11-17T15:06:27.663Z,2.00
2022-11-17T15:08:57.614Z,2.30
2022-11-17T15:11:26.827Z,2.60
2022-11-17T15:13:54.852Z,2.05
2022-11-17T15:16:22.735Z,2.17
2022-11-17T15:18:52.264Z,2.15
2022-11-17T15:21:20.193Z,2.17
2022-11-17T15:23:48.208Z,1.75
2022-11-17T15:26:18.757Z,2.00
2022-11-17T15:28:47.182Z,2.05
2022-11-17T15:31:16.947Z,2.58
2022-11-17T15:33:46.248Z,1.90
2022-11-17T15:36:18.000Z,2.05
2022-11-17T15:38:47.517Z,2.42
2022-11-17T15:41:16.415Z,1.83
2022-11-17T15:43:45.684Z,1.80
2022-11-17T15:46:15.200Z,2.85
2022-11-17T15:48:44.887Z,2.30
2022-11-17T15:51:15.785Z,2.03
2022-11-17T15:53:45.147Z,1.70
2022-11-17T15:56:15.324Z,1.77
2022-11-17T15:58:44.278Z,1.30
2022-11-17T16:01:14.594Z,1.73
2022-11-17T16:03:46.365Z,1.60
2022-11-17T16:06:15.724Z,1.70
2022-11-17T16:08:43.822Z,1.52
2022-11-17T16:11:12.478Z,1.55
2022-11-17T16:13:40.699Z,1.90
2022-11-17T16:16:11.655Z,1.23
2022-11-17T16:18:39.974Z,1.35
2022-11-17T16:21:09.383Z,1.42
2022-11-17T16:23:43.017Z,1.58
2022-11-17T16:26:12.375Z,1.70
2022-11-17T16:28:40.721Z,1.52
2022-11-17T16:31:16.273Z,1.58
2022-11-17T16:33:48.363Z,1.15
2022-11-17T16:36:16.431Z,1.52
2022-11-17T16:39:02.286Z,1.30
2022-11-17T16:41:33.159Z,1.50
2022-11-17T16:44:01.977Z,1.30
2022-11-17T16:46:32.438Z,1.52
2022-11-17T16:49:02.745Z,1.38
2022-11-17T16:51:31.090Z,1.38
2022-11-17T16:54:02.009Z,1.35
2022-11-17T16:56:30.673Z,1.38
2022-11-17T16:58:59.766Z,1.85
2022-11-17T17:01:30.417Z,1.20
2022-11-17T17:03:59.496Z,1.35
2022-11-17T17:06:27.549Z,1.40
2022-11-17T17:08:56.310Z,1.70
2022-11-17T17:11:27.335Z,1.50
2022-11-17T17:13:56.416Z,1.45
2022-11-17T17:16:25.785Z,1.60
2022-11-17T17:18:56.339Z,1.50
2022-11-17T17:21:24.404Z,1.40
2022-11-17T17:23:52.847Z,1.30
2022-11-17T17:26:22.912Z,1.25
2022-11-17T17:28:55.256Z,1.50
2022-11-17T17:31:24.912Z,1.40
2022-11-17T17:33:53.781Z,1.52
2022-11-17T17:36:26.011Z,1.20
2022-11-17T17:38:56.447Z,1.48
2022-11-17T17:41:26.643Z,1.17
2022-11-17T17:44:00.574Z,2.03
2022-11-17T17:46:30.614Z,1.13
2022-11-17T17:48:59.264Z,1.27
2022-11-17T17:51:28.433Z,1.38
2022-11-17T17:54:02.058Z,1.30
2022-11-17T17:56:30.761Z,1.25
2022-11-17T17:59:02.640Z,1.52
2022-11-17T18:01:33.122Z,1.10
2022-11-17T18:04:05.055Z,1.23
2022-11-17T18:06:37.153Z,1.35
2022-11-17T18:09:06.211Z,1.20
2022-11-17T18:11:34.304Z,1.35
2022-11-17T18:14:04.427Z,1.27
2022-11-17T18:16:35.829Z,1.30
2022-11-17T18:19:05.995Z,1.05
2022-11-17T18:21:35.048Z,1.40
2022-11-17T18:24:03.722Z,1.25
2022-11-17T18:26:33.066Z,1.52
2022-11-17T18:29:04.986Z,1.25
2022-11-17T18:31:34.924Z,1.50
2022-11-17T18:34:05.222Z,1.83
2022-11-17T18:36:33.329Z,1.10
2022-11-17T18:39:01.470Z,1.02
2022-11-17T18:41:30.909Z,1.60
2022-11-17T18:43:59.352Z,1.13
2022-11-17T18:46:31.124Z,1.20
2022-11-17T18:48:59.812Z,1.30
2022-11-17T18:51:29.836Z,1.15
2022-11-17T18:54:00.036Z,1.48
2022-11-17T18:56:29.430Z,1.50
2022-11-17T18:58:57.659Z,1.38
2022-11-17T19:01:30.714Z,1.10
2022-11-17T19:04:01.079Z,1.27
2022-11-17T19:06:29.498Z,1.83
2022-11-17T19:08:59.649Z,1.10
2022-11-17T19:11:30.707Z,1.30
2022-11-17T19:14:00.054Z,1.70
2022-11-17T19:16:30.122Z,1.15
2022-11-17T19:18:58.224Z,1.13
2022-11-17T19:21:27.632Z,1.20
2022-11-17T19:23:58.285Z,1.35
2022-11-17T19:26:28.112Z,1.42
2022-11-17T19:28:59.854Z,1.23
2022-11-17T19:31:29.576Z,1.40
2022-11-17T19:33:58.462Z,1.60
2022-11-17T19:36:29.319Z,1.20
2022-11-17T19:38:58.928Z,1.17
2022-11-17T19:41:28.929Z,1.10
2022-11-17T19:43:58.055Z,1.13
2022-11-17T19:46:28.296Z,1.10
2022-11-17T19:48:58.471Z,1.60
2022-11-17T19:51:29.248Z,1.20
2022-11-17T19:53:59.681Z,1.50
2022-11-17T19:56:27.850Z,1.17
2022-11-17T19:58:56.108Z,1.20
2022-11-17T20:01:25.928Z,1.20
2022-11-17T20:03:54.286Z,1.30
2022-11-17T20:06:27.181Z,1.17
2022-11-17T20:08:56.083Z,1.50
2022-11-17T20:11:28.087Z,1.30
2022-11-17T20:13:56.794Z,1.45
2022-11-17T20:16:26.617Z,1.20
2022-11-17T20:18:56.803Z,1.38
2022-11-17T20:21:26.446Z,1.33
2022-11-17T20:23:54.986Z,1.48
2022-11-17T20:26:25.456Z,1.35
2022-11-17T20:28:55.253Z,1.38
2022-11-17T20:31:25.221Z,1.40
2022-11-17T20:33:56.435Z,1.40
2022-11-17T20:36:24.498Z,1.45
2022-11-17T20:38:54.854Z,1.10
2022-11-17T20:41:23.790Z,1.40
2022-11-17T20:43:53.232Z,1.27
2022-11-17T20:46:22.058Z,1.50
2022-11-17T20:48:50.550Z,1.25
2022-11-17T20:51:20.241Z,1.40
2022-11-17T20:56:20.341Z,1.10
2022-11-17T20:58:48.568Z,1.40
2022-11-17T21:01:18.087Z,1.40
2022-11-17T21:03:46.411Z,1.17
2022-11-17T21:06:14.814Z,1.40
2022-11-17T21:08:44.476Z,1.50
2022-11-17T21:11:34.774Z,1.27
2022-11-17T21:14:05.183Z,1.30
2022-11-17T21:16:33.659Z,1.30
2022-11-17T21:19:01.592Z,1.50
2022-11-17T21:21:29.538Z,1.27
2022-11-17T21:23:57.642Z,1.67
2022-11-17T21:26:25.622Z,1.25
2022-11-17T21:28:53.724Z,1.40
2022-11-17T21:31:25.476Z,1.30
2022-11-17T21:33:55.077Z,1.20
2022-11-17T21:36:24.404Z,1.40
2022-11-17T21:38:52.918Z,1.45
2022-11-17T21:41:22.628Z,1.33
2022-11-17T21:43:52.388Z,1.27
2022-11-17T21:46:23.864Z,1.58
2022-11-17T21:48:53.056Z,1.50
2022-11-17T21:51:22.705Z,0.80
2022-11-17T21:53:53.841Z,1.40
2022-11-17T21:56:26.693Z,1.30
2022-11-17T21:58:56.167Z,1.20
2022-11-17T22:01:26.267Z,1.30
2022-11-17T22:03:54.746Z,1.20
2022-11-17T22:06:24.376Z,1.30
2022-11-17T22:08:52.866Z,1.50
2022-11-17T22:11:36.507Z,1.42
2022-11-17T22:14:10.897Z,1.75
2022-11-17T22:16:41.712Z,1.60
2022-11-17T22:19:10.655Z,1.27
2022-11-17T22:21:40.994Z,1.60
2022-11-17T22:24:12.925Z,1.33
2022-11-17T22:26:43.348Z,1.40
2022-11-17T22:29:13.411Z,1.33
2022-11-17T22:31:44.158Z,1.50
2022-11-17T22:34:12.389Z,1.77
2022-11-17T22:36:40.390Z,1.42
2022-11-17T22:39:09.404Z,1.70
2022-11-17T22:41:37.437Z,1.35
2022-11-17T22:44:06.295Z,1.50
2022-11-17T22:46:35.156Z,1.48
2022-11-17T22:49:04.564Z,1.30
2022-11-17T22:51:49.778Z,1.60
2022-11-17T22:54:17.994Z,1.60
2022-11-17T22:56:46.053Z,1.55
2022-11-17T22:59:14.144Z,1.55
2022-11-17T23:01:42.396Z,1.25
2022-11-17T23:04:12.643Z,1.42
2022-11-17T23:06:40.668Z,1.58
2022-11-17T23:09:08.645Z,1.38
2022-11-17T23:11:38.215Z,1.63
2022-11-17T23:14:07.880Z,1.60
2022-11-17T23:16:37.865Z,1.30
2022-11-17T23:19:06.728Z,0.98
2022-11-17T23:21:36.023Z,1.20
2022-11-17T23:24:05.185Z,1.27
2022-11-17T23:26:33.070Z,1.90
2022-11-17T23:29:01.197Z,1.80
2022-11-17T23:31:29.121Z,1.85
2022-11-17T23:33:57.064Z,1.45
2022-11-17T23:36:25.327Z,1.58
2022-11-17T23:38:56.649Z,1.50
2022-11-17T23:41:24.754Z,1.70
2022-11-17T23:43:54.455Z,1.90
2022-11-17T23:46:24.983Z,2.05
2022-11-17T23:48:53.445Z,1.67
2022-11-17T23:51:23.401Z,1.75
2022-11-17T23:53:51.629Z,1.90
2022-11-17T23:56:22.156Z,1.63
2022-11-17T23:58:50.178Z,1.67
